Dayton, Washington
Current Conditions -  °F | °C
As of 4:53 PM on Friday 28 Nov 2014 (Local Time) from KALW Reporting Station
Broken Clouds Broken Clouds  
Wind Chill: 60°   Ceiling: 6000
Heat Index: 60°   Visibility: 10mi
Dew Point: 39°   Wind: 29mph
Humidity: 46%   Direction: 200°SSW
Pressure: 29.4"   Gusts: 38mph
Location:  46.32°N, 117.97°W
Report Text: KALW 290053Z 20025G33KT 10SM BKN060 16/04 A2940 RMK AO2 PK WND 20033/0053 SLP954 T01560039
Loading
Personal Weather Stations






























Interactive Weather Map New forecast layout! Learn more

10-Day Weather Forecast

Advertisements
Track Severe Weather on mobile